sensor_id;sensor_type;location;lat;lon;timestamp;P1;durP1;ratioP1;P2;durP2;ratioP2
9597;SDS011;4837;50.890;4.724;2023-11-21T00:00:14;40.97;;;24.33;;
9597;SDS011;4837;50.890;4.724;2023-11-21T00:02:41;41.10;;;25.93;;
9597;SDS011;4837;50.890;4.724;2023-11-21T00:05:08;39.10;;;25.02;;
9597;SDS011;4837;50.890;4.724;2023-11-21T00:07:36;40.45;;;24.58;;
9597;SDS011;4837;50.890;4.724;2023-11-21T00:10:02;44.70;;;26.08;;
9597;SDS011;4837;50.890;4.724;2023-11-21T00:12:30;42.65;;;25.27;;
9597;SDS011;4837;50.890;4.724;2023-11-21T00:14:56;42.45;;;25.38;;
9597;SDS011;4837;50.890;4.724;2023-11-21T00:17:23;43.00;;;25.40;;
9597;SDS011;4837;50.890;4.724;2023-11-21T00:19:49;42.03;;;26.52;;
9597;SDS011;4837;50.890;4.724;2023-11-21T00:22:17;41.72;;;26.23;;
9597;SDS011;4837;50.890;4.724;2023-11-21T00:24:43;41.28;;;25.50;;
9597;SDS011;4837;50.890;4.724;2023-11-21T00:27:10;43.40;;;25.02;;
9597;SDS011;4837;50.890;4.724;2023-11-21T00:29:36;45.83;;;25.83;;
9597;SDS011;4837;50.890;4.724;2023-11-21T00:32:04;44.97;;;25.43;;
9597;SDS011;4837;50.890;4.724;2023-11-21T00:34:30;46.22;;;26.48;;
9597;SDS011;4837;50.890;4.724;2023-11-21T00:36:57;42.42;;;25.65;;
9597;SDS011;4837;50.890;4.724;2023-11-21T00:39:23;38.22;;;24.65;;
9597;SDS011;4837;50.890;4.724;2023-11-21T00:41:50;41.47;;;24.92;;
9597;SDS011;4837;50.890;4.724;2023-11-21T00:44:16;41.30;;;25.45;;
9597;SDS011;4837;50.890;4.724;2023-11-21T00:46:43;41.53;;;25.63;;
9597;SDS011;4837;50.890;4.724;2023-11-21T00:49:09;42.13;;;25.67;;
9597;SDS011;4837;50.890;4.724;2023-11-21T00:51:35;44.30;;;26.37;;
9597;SDS011;4837;50.890;4.724;2023-11-21T00:54:01;42.27;;;24.47;;
9597;SDS011;4837;50.890;4.724;2023-11-21T00:56:27;37.22;;;22.17;;
9597;SDS011;4837;50.890;4.724;2023-11-21T00:58:54;41.47;;;24.70;;
9597;SDS011;4837;50.890;4.724;2023-11-21T01:01:20;41.47;;;24.05;;
9597;SDS011;4837;50.890;4.724;2023-11-21T01:03:49;38.47;;;23.00;;
9597;SDS011;4837;50.890;4.724;2023-11-21T01:06:16;38.60;;;23.17;;
9597;SDS011;4837;50.890;4.724;2023-11-21T01:08:45;40.40;;;23.33;;
9597;SDS011;4837;50.890;4.724;2023-11-21T01:11:11;39.70;;;23.37;;
9597;SDS011;4837;50.890;4.724;2023-11-21T01:13:38;41.78;;;23.35;;
9597;SDS011;4837;50.890;4.724;2023-11-21T01:16:05;41.80;;;24.33;;
9597;SDS011;4837;50.890;4.724;2023-11-21T01:18:31;43.30;;;23.63;;
9597;SDS011;4837;50.890;4.724;2023-11-21T01:20:58;40.65;;;22.73;;
9597;SDS011;4837;50.890;4.724;2023-11-21T01:23:25;41.38;;;22.48;;
9597;SDS011;4837;50.890;4.724;2023-11-21T01:25:52;40.87;;;22.87;;
9597;SDS011;4837;50.890;4.724;2023-11-21T01:28:18;43.35;;;23.48;;
9597;SDS011;4837;50.890;4.724;2023-11-21T01:30:45;39.80;;;24.03;;
9597;SDS011;4837;50.890;4.724;2023-11-21T01:33:11;38.85;;;23.15;;
9597;SDS011;4837;50.890;4.724;2023-11-21T01:35:37;48.80;;;25.00;;
9597;SDS011;4837;50.890;4.724;2023-11-21T01:38:03;42.90;;;24.27;;
9597;SDS011;4837;50.890;4.724;2023-11-21T01:40:29;41.10;;;23.58;;
9597;SDS011;4837;50.890;4.724;2023-11-21T01:42:56;43.33;;;23.35;;
9597;SDS011;4837;50.890;4.724;2023-11-21T01:45:23;42.60;;;24.35;;
9597;SDS011;4837;50.890;4.724;2023-11-21T01:47:50;42.37;;;23.57;;
9597;SDS011;4837;50.890;4.724;2023-11-21T01:50:16;44.30;;;23.27;;
9597;SDS011;4837;50.890;4.724;2023-11-21T01:52:43;40.78;;;23.38;;
9597;SDS011;4837;50.890;4.724;2023-11-21T01:55:10;43.40;;;24.88;;
9597;SDS011;4837;50.890;4.724;2023-11-21T01:57:37;37.95;;;23.48;;
9597;SDS011;4837;50.890;4.724;2023-11-21T02:00:04;41.78;;;24.50;;
9597;SDS011;4837;50.890;4.724;2023-11-21T02:02:48;41.00;;;23.52;;
9597;SDS011;4837;50.890;4.724;2023-11-21T02:05:14;40.33;;;23.35;;
9597;SDS011;4837;50.890;4.724;2023-11-21T02:07:43;43.17;;;23.50;;
9597;SDS011;4837;50.890;4.724;2023-11-21T02:10:10;41.17;;;22.95;;
9597;SDS011;4837;50.890;4.724;2023-11-21T02:12:39;39.70;;;23.07;;
9597;SDS011;4837;50.890;4.724;2023-11-21T02:15:07;42.60;;;23.23;;
9597;SDS011;4837;50.890;4.724;2023-11-21T02:17:42;39.07;;;23.17;;
9597;SDS011;4837;50.890;4.724;2023-11-21T02:20:17;39.47;;;23.00;;
9597;SDS011;4837;50.890;4.724;2023-11-21T02:22:52;41.03;;;22.80;;
9597;SDS011;4837;50.890;4.724;2023-11-21T02:25:23;42.85;;;23.40;;
9597;SDS011;4837;50.890;4.724;2023-11-21T02:27:49;39.70;;;21.42;;
9597;SDS011;4837;50.890;4.724;2023-11-21T02:30:16;41.13;;;22.83;;
9597;SDS011;4837;50.890;4.724;2023-11-21T02:32:43;40.20;;;23.13;;
9597;SDS011;4837;50.890;4.724;2023-11-21T02:35:10;42.10;;;22.00;;
9597;SDS011;4837;50.890;4.724;2023-11-21T02:37:37;46.03;;;22.73;;
9597;SDS011;4837;50.890;4.724;2023-11-21T02:40:04;42.72;;;22.80;;
9597;SDS011;4837;50.890;4.724;2023-11-21T02:42:34;47.55;;;24.27;;
9597;SDS011;4837;50.890;4.724;2023-11-21T02:45:01;42.60;;;22.03;;
9597;SDS011;4837;50.890;4.724;2023-11-21T02:47:27;38.90;;;21.92;;
9597;SDS011;4837;50.890;4.724;2023-11-21T02:49:53;43.03;;;21.48;;
9597;SDS011;4837;50.890;4.724;2023-11-21T02:52:20;40.47;;;22.13;;
9597;SDS011;4837;50.890;4.724;2023-11-21T02:54:46;40.90;;;22.38;;
9597;SDS011;4837;50.890;4.724;2023-11-21T02:57:12;47.50;;;23.52;;
9597;SDS011;4837;50.890;4.724;2023-11-21T02:59:38;45.47;;;23.10;;
9597;SDS011;4837;50.890;4.724;2023-11-21T03:02:04;43.23;;;22.63;;
9597;SDS011;4837;50.890;4.724;2023-11-21T03:04:34;43.43;;;23.20;;
9597;SDS011;4837;50.890;4.724;2023-11-21T03:07:00;47.77;;;22.87;;
9597;SDS011;4837;50.890;4.724;2023-11-21T03:09:26;42.67;;;23.43;;
9597;SDS011;4837;50.890;4.724;2023-11-21T03:11:53;41.53;;;21.90;;
9597;SDS011;4837;50.890;4.724;2023-11-21T03:14:19;39.57;;;21.90;;
9597;SDS011;4837;50.890;4.724;2023-11-21T03:16:45;47.10;;;23.10;;
9597;SDS011;4837;50.890;4.724;2023-11-21T03:19:11;41.93;;;22.97;;
9597;SDS011;4837;50.890;4.724;2023-11-21T03:21:37;45.73;;;23.20;;
9597;SDS011;4837;50.890;4.724;2023-11-21T03:24:04;45.65;;;22.75;;
9597;SDS011;4837;50.890;4.724;2023-11-21T03:26:31;39.70;;;22.30;;
9597;SDS011;4837;50.890;4.724;2023-11-21T03:28:57;40.83;;;22.02;;
9597;SDS011;4837;50.890;4.724;2023-11-21T03:31:23;39.13;;;21.50;;
9597;SDS011;4837;50.890;4.724;2023-11-21T03:33:49;37.22;;;20.83;;
9597;SDS011;4837;50.890;4.724;2023-11-21T03:36:15;41.80;;;23.55;;
9597;SDS011;4837;50.890;4.724;2023-11-21T03:38:43;44.43;;;22.13;;
9597;SDS011;4837;50.890;4.724;2023-11-21T03:41:09;40.73;;;22.40;;
9597;SDS011;4837;50.890;4.724;2023-11-21T03:43:36;40.20;;;21.23;;
9597;SDS011;4837;50.890;4.724;2023-11-21T03:46:02;39.07;;;21.80;;
9597;SDS011;4837;50.890;4.724;2023-11-21T03:48:28;37.23;;;20.97;;
9597;SDS011;4837;50.890;4.724;2023-11-21T03:50:54;35.13;;;20.20;;
9597;SDS011;4837;50.890;4.724;2023-11-21T03:53:20;37.40;;;21.60;;
9597;SDS011;4837;50.890;4.724;2023-11-21T03:55:47;43.30;;;21.53;;
9597;SDS011;4837;50.890;4.724;2023-11-21T03:58:13;40.70;;;22.07;;
9597;SDS011;4837;50.890;4.724;2023-11-21T04:00:40;40.50;;;21.25;;
9597;SDS011;4837;50.890;4.724;2023-11-21T04:03:06;39.30;;;21.97;;
9597;SDS011;4837;50.890;4.724;2023-11-21T04:05:32;37.10;;;21.73;;
9597;SDS011;4837;50.890;4.724;2023-11-21T04:07:58;35.63;;;20.43;;
9597;SDS011;4837;50.890;4.724;2023-11-21T04:10:25;32.30;;;17.95;;
9597;SDS011;4837;50.890;4.724;2023-11-21T04:12:51;37.25;;;18.90;;
9597;SDS011;4837;50.890;4.724;2023-11-21T04:15:17;32.92;;;18.75;;
9597;SDS011;4837;50.890;4.724;2023-11-21T04:17:43;35.90;;;19.77;;
9597;SDS011;4837;50.890;4.724;2023-11-21T04:20:10;33.70;;;19.17;;
9597;SDS011;4837;50.890;4.724;2023-11-21T04:22:40;35.92;;;20.50;;
9597;SDS011;4837;50.890;4.724;2023-11-21T04:25:15;31.47;;;18.83;;
9597;SDS011;4837;50.890;4.724;2023-11-21T04:27:42;32.73;;;18.87;;
9597;SDS011;4837;50.890;4.724;2023-11-21T04:30:09;35.30;;;18.77;;
9597;SDS011;4837;50.890;4.724;2023-11-21T04:32:36;34.83;;;19.37;;
9597;SDS011;4837;50.890;4.724;2023-11-21T04:35:02;34.23;;;19.17;;
9597;SDS011;4837;50.890;4.724;2023-11-21T04:37:29;34.60;;;19.17;;
9597;SDS011;4837;50.890;4.724;2023-11-21T04:39:55;31.20;;;18.33;;
9597;SDS011;4837;50.890;4.724;2023-11-21T04:42:21;32.73;;;18.73;;
9597;SDS011;4837;50.890;4.724;2023-11-21T04:44:48;32.93;;;19.70;;
9597;SDS011;4837;50.890;4.724;2023-11-21T04:47:14;34.72;;;19.95;;
9597;SDS011;4837;50.890;4.724;2023-11-21T04:49:43;34.47;;;18.83;;
9597;SDS011;4837;50.890;4.724;2023-11-21T04:52:14;32.67;;;19.03;;
9597;SDS011;4837;50.890;4.724;2023-11-21T04:54:40;33.20;;;18.73;;
9597;SDS011;4837;50.890;4.724;2023-11-21T04:57:08;34.25;;;19.30;;
9597;SDS011;4837;50.890;4.724;2023-11-21T04:59:34;38.43;;;19.30;;
9597;SDS011;4837;50.890;4.724;2023-11-21T05:02:01;38.03;;;20.30;;
9597;SDS011;4837;50.890;4.724;2023-11-21T05:04:28;35.63;;;19.90;;
9597;SDS011;4837;50.890;4.724;2023-11-21T05:06:54;36.50;;;19.83;;
9597;SDS011;4837;50.890;4.724;2023-11-21T05:09:20;39.92;;;19.92;;
9597;SDS011;4837;50.890;4.724;2023-11-21T05:11:47;38.38;;;21.10;;
9597;SDS011;4837;50.890;4.724;2023-11-21T05:14:13;43.10;;;20.87;;
9597;SDS011;4837;50.890;4.724;2023-11-21T05:16:39;38.73;;;20.10;;
9597;SDS011;4837;50.890;4.724;2023-11-21T05:19:05;37.33;;;20.73;;
9597;SDS011;4837;50.890;4.724;2023-11-21T05:21:31;41.83;;;20.73;;
9597;SDS011;4837;50.890;4.724;2023-11-21T05:23:58;37.83;;;20.50;;
9597;SDS011;4837;50.890;4.724;2023-11-21T05:26:24;42.00;;;20.27;;
9597;SDS011;4837;50.890;4.724;2023-11-21T05:28:50;38.60;;;20.63;;
9597;SDS011;4837;50.890;4.724;2023-11-21T05:31:17;35.90;;;19.10;;
9597;SDS011;4837;50.890;4.724;2023-11-21T05:33:43;37.00;;;19.70;;
9597;SDS011;4837;50.890;4.724;2023-11-21T05:36:09;37.60;;;20.50;;
9597;SDS011;4837;50.890;4.724;2023-11-21T05:38:35;37.37;;;20.13;;
9597;SDS011;4837;50.890;4.724;2023-11-21T05:41:02;37.70;;;19.77;;
9597;SDS011;4837;50.890;4.724;2023-11-21T05:43:29;36.93;;;20.50;;
9597;SDS011;4837;50.890;4.724;2023-11-21T05:45:56;35.93;;;19.73;;
9597;SDS011;4837;50.890;4.724;2023-11-21T05:48:22;42.20;;;20.90;;
9597;SDS011;4837;50.890;4.724;2023-11-21T05:50:48;37.90;;;19.73;;
9597;SDS011;4837;50.890;4.724;2023-11-21T05:53:15;38.20;;;20.03;;
9597;SDS011;4837;50.890;4.724;2023-11-21T05:55:42;40.97;;;19.60;;
9597;SDS011;4837;50.890;4.724;2023-11-21T05:58:08;35.63;;;19.20;;
9597;SDS011;4837;50.890;4.724;2023-11-21T06:00:34;38.67;;;21.13;;
9597;SDS011;4837;50.890;4.724;2023-11-21T06:03:01;40.63;;;21.53;;
9597;SDS011;4837;50.890;4.724;2023-11-21T06:05:27;39.67;;;19.90;;
9597;SDS011;4837;50.890;4.724;2023-11-21T06:07:55;40.23;;;19.40;;
9597;SDS011;4837;50.890;4.724;2023-11-21T06:10:25;40.17;;;20.43;;
9597;SDS011;4837;50.890;4.724;2023-11-21T06:12:52;38.33;;;19.83;;
9597;SDS011;4837;50.890;4.724;2023-11-21T06:15:18;37.40;;;20.35;;
9597;SDS011;4837;50.890;4.724;2023-11-21T06:17:46;43.53;;;21.23;;
9597;SDS011;4837;50.890;4.724;2023-11-21T06:20:17;39.30;;;20.00;;
9597;SDS011;4837;50.890;4.724;2023-11-21T06:22:44;43.07;;;21.73;;
9597;SDS011;4837;50.890;4.724;2023-11-21T06:25:10;44.42;;;21.42;;
9597;SDS011;4837;50.890;4.724;2023-11-21T06:27:38;41.17;;;21.13;;
9597;SDS011;4837;50.890;4.724;2023-11-21T06:30:05;40.27;;;21.27;;
9597;SDS011;4837;50.890;4.724;2023-11-21T06:32:35;43.63;;;21.50;;
9597;SDS011;4837;50.890;4.724;2023-11-21T06:35:02;39.23;;;20.50;;
9597;SDS011;4837;50.890;4.724;2023-11-21T06:37:29;40.47;;;21.07;;
9597;SDS011;4837;50.890;4.724;2023-11-21T06:39:55;45.00;;;21.67;;
9597;SDS011;4837;50.890;4.724;2023-11-21T06:42:23;38.83;;;21.07;;
9597;SDS011;4837;50.890;4.724;2023-11-21T06:44:50;41.57;;;21.37;;
9597;SDS011;4837;50.890;4.724;2023-11-21T06:47:22;41.10;;;20.03;;
9597;SDS011;4837;50.890;4.724;2023-11-21T06:49:51;44.53;;;22.20;;
9597;SDS011;4837;50.890;4.724;2023-11-21T06:52:18;37.47;;;20.00;;
9597;SDS011;4837;50.890;4.724;2023-11-21T06:54:44;41.17;;;21.20;;
9597;SDS011;4837;50.890;4.724;2023-11-21T06:57:10;39.57;;;20.87;;
9597;SDS011;4837;50.890;4.724;2023-11-21T06:59:37;43.37;;;20.93;;
9597;SDS011;4837;50.890;4.724;2023-11-21T07:02:03;37.80;;;20.03;;
9597;SDS011;4837;50.890;4.724;2023-11-21T07:04:35;39.17;;;20.53;;
9597;SDS011;4837;50.890;4.724;2023-11-21T07:07:02;40.37;;;21.63;;
9597;SDS011;4837;50.890;4.724;2023-11-21T07:09:28;39.27;;;20.60;;
9597;SDS011;4837;50.890;4.724;2023-11-21T07:11:55;41.03;;;20.97;;
9597;SDS011;4837;50.890;4.724;2023-11-21T07:14:21;40.83;;;20.77;;
9597;SDS011;4837;50.890;4.724;2023-11-21T07:16:47;40.77;;;20.17;;
9597;SDS011;4837;50.890;4.724;2023-11-21T07:19:13;42.20;;;20.43;;
9597;SDS011;4837;50.890;4.724;2023-11-21T07:21:40;39.13;;;20.77;;
9597;SDS011;4837;50.890;4.724;2023-11-21T07:24:06;39.93;;;19.53;;
9597;SDS011;4837;50.890;4.724;2023-11-21T07:26:33;37.20;;;20.38;;
9597;SDS011;4837;50.890;4.724;2023-11-21T07:29:03;40.60;;;20.90;;
9597;SDS011;4837;50.890;4.724;2023-11-21T07:31:31;36.28;;;19.02;;
9597;SDS011;4837;50.890;4.724;2023-11-21T07:33:59;36.30;;;19.47;;
9597;SDS011;4837;50.890;4.724;2023-11-21T07:36:26;40.67;;;19.47;;
9597;SDS011;4837;50.890;4.724;2023-11-21T07:38:52;36.03;;;19.20;;
9597;SDS011;4837;50.890;4.724;2023-11-21T07:41:18;33.20;;;18.40;;
9597;SDS011;4837;50.890;4.724;2023-11-21T07:43:44;47.57;;;28.73;;
9597;SDS011;4837;50.890;4.724;2023-11-21T07:46:11;39.05;;;20.02;;
9597;SDS011;4837;50.890;4.724;2023-11-21T07:48:41;38.25;;;19.27;;
9597;SDS011;4837;50.890;4.724;2023-11-21T07:51:07;37.20;;;19.60;;
9597;SDS011;4837;50.890;4.724;2023-11-21T07:53:34;38.60;;;19.48;;
9597;SDS011;4837;50.890;4.724;2023-11-21T07:56:07;32.80;;;18.90;;
9597;SDS011;4837;50.890;4.724;2023-11-21T07:58:34;39.97;;;19.67;;
9597;SDS011;4837;50.890;4.724;2023-11-21T08:01:01;38.70;;;20.13;;
9597;SDS011;4837;50.890;4.724;2023-11-21T08:03:27;37.85;;;20.02;;
9597;SDS011;4837;50.890;4.724;2023-11-21T08:05:55;39.90;;;21.58;;
9597;SDS011;4837;50.890;4.724;2023-11-21T08:08:21;38.08;;;20.30;;
9597;SDS011;4837;50.890;4.724;2023-11-21T08:10:49;38.15;;;21.00;;
9597;SDS011;4837;50.890;4.724;2023-11-21T08:13:24;37.63;;;21.23;;
9597;SDS011;4837;50.890;4.724;2023-11-21T08:15:53;37.92;;;22.83;;
9597;SDS011;4837;50.890;4.724;2023-11-21T08:18:20;41.05;;;21.00;;
9597;SDS011;4837;50.890;4.724;2023-11-21T08:20:46;34.50;;;19.83;;
9597;SDS011;4837;50.890;4.724;2023-11-21T08:23:13;36.67;;;21.53;;
9597;SDS011;4837;50.890;4.724;2023-11-21T08:25:40;36.55;;;20.58;;
9597;SDS011;4837;50.890;4.724;2023-11-21T08:28:07;33.97;;;19.37;;
9597;SDS011;4837;50.890;4.724;2023-11-21T08:30:33;34.80;;;20.63;;
9597;SDS011;4837;50.890;4.724;2023-11-21T08:33:00;35.40;;;19.63;;
9597;SDS011;4837;50.890;4.724;2023-11-21T08:35:28;36.42;;;21.08;;
9597;SDS011;4837;50.890;4.724;2023-11-21T08:37:54;34.35;;;19.63;;
9597;SDS011;4837;50.890;4.724;2023-11-21T08:40:20;34.22;;;20.80;;
9597;SDS011;4837;50.890;4.724;2023-11-21T08:42:47;36.13;;;20.50;;
9597;SDS011;4837;50.890;4.724;2023-11-21T08:45:16;38.17;;;21.25;;
9597;SDS011;4837;50.890;4.724;2023-11-21T08:47:43;40.00;;;21.33;;
9597;SDS011;4837;50.890;4.724;2023-11-21T08:50:09;32.25;;;20.55;;
9597;SDS011;4837;50.890;4.724;2023-11-21T08:52:40;38.03;;;21.65;;
9597;SDS011;4837;50.890;4.724;2023-11-21T08:55:07;36.97;;;21.63;;
9597;SDS011;4837;50.890;4.724;2023-11-21T08:57:37;38.53;;;20.43;;
9597;SDS011;4837;50.890;4.724;2023-11-21T09:00:03;34.72;;;21.10;;
9597;SDS011;4837;50.890;4.724;2023-11-21T09:02:33;40.13;;;21.67;;
9597;SDS011;4837;50.890;4.724;2023-11-21T09:04:59;39.72;;;20.98;;
9597;SDS011;4837;50.890;4.724;2023-11-21T09:07:28;42.90;;;22.08;;
9597;SDS011;4837;50.890;4.724;2023-11-21T09:09:54;41.70;;;22.65;;
9597;SDS011;4837;50.890;4.724;2023-11-21T09:12:21;44.03;;;23.47;;
9597;SDS011;4837;50.890;4.724;2023-11-21T09:14:47;41.40;;;23.30;;
9597;SDS011;4837;50.890;4.724;2023-11-21T09:17:16;47.13;;;24.48;;
9597;SDS011;4837;50.890;4.724;2023-11-21T09:19:42;40.93;;;23.57;;
9597;SDS011;4837;50.890;4.724;2023-11-21T09:22:15;45.53;;;23.60;;
9597;SDS011;4837;50.890;4.724;2023-11-21T09:24:41;42.90;;;23.00;;
9597;SDS011;4837;50.890;4.724;2023-11-21T09:27:08;41.88;;;23.40;;
9597;SDS011;4837;50.890;4.724;2023-11-21T09:29:35;43.60;;;24.07;;
9597;SDS011;4837;50.890;4.724;2023-11-21T09:32:04;43.92;;;22.98;;
9597;SDS011;4837;50.890;4.724;2023-11-21T09:34:32;46.10;;;24.38;;
9597;SDS011;4837;50.890;4.724;2023-11-21T09:36:58;40.85;;;23.17;;
9597;SDS011;4837;50.890;4.724;2023-11-21T09:39:24;42.33;;;24.03;;
9597;SDS011;4837;50.890;4.724;2023-11-21T09:44:32;37.38;;;22.98;;
9597;SDS011;4837;50.890;4.724;2023-11-21T09:47:01;38.88;;;22.63;;
9597;SDS011;4837;50.890;4.724;2023-11-21T09:49:28;34.03;;;22.15;;
9597;SDS011;4837;50.890;4.724;2023-11-21T09:52:00;43.95;;;23.08;;
9597;SDS011;4837;50.890;4.724;2023-11-21T09:54:31;31.98;;;21.17;;
9597;SDS011;4837;50.890;4.724;2023-11-21T09:57:00;35.72;;;22.05;;
9597;SDS011;4837;50.890;4.724;2023-11-21T09:59:28;36.00;;;21.83;;
9597;SDS011;4837;50.890;4.724;2023-11-21T10:01:57;31.67;;;20.90;;
9597;SDS011;4837;50.890;4.724;2023-11-21T10:04:24;30.93;;;20.57;;
9597;SDS011;4837;50.890;4.724;2023-11-21T10:06:50;30.23;;;19.98;;
9597;SDS011;4837;50.890;4.724;2023-11-21T10:09:17;31.05;;;19.70;;
9597;SDS011;4837;50.890;4.724;2023-11-21T10:11:45;30.15;;;18.75;;
9597;SDS011;4837;50.890;4.724;2023-11-21T10:14:13;27.27;;;18.42;;
9597;SDS011;4837;50.890;4.724;2023-11-21T10:16:40;26.92;;;16.95;;
9597;SDS011;4837;50.890;4.724;2023-11-21T10:19:10;28.63;;;18.42;;
9597;SDS011;4837;50.890;4.724;2023-11-21T10:21:38;29.38;;;18.38;;
9597;SDS011;4837;50.890;4.724;2023-11-21T10:24:05;28.10;;;17.87;;
9597;SDS011;4837;50.890;4.724;2023-11-21T10:26:31;38.10;;;20.88;;
9597;SDS011;4837;50.890;4.724;2023-11-21T10:28:58;35.83;;;20.02;;
9597;SDS011;4837;50.890;4.724;2023-11-21T10:31:27;35.40;;;21.10;;
9597;SDS011;4837;50.890;4.724;2023-11-21T10:33:56;41.03;;;22.80;;
9597;SDS011;4837;50.890;4.724;2023-11-21T10:36:27;41.77;;;21.67;;
9597;SDS011;4837;50.890;4.724;2023-11-21T10:38:53;42.47;;;22.33;;
9597;SDS011;4837;50.890;4.724;2023-11-21T10:41:20;39.70;;;22.67;;
9597;SDS011;4837;50.890;4.724;2023-11-21T10:43:46;45.50;;;23.60;;
9597;SDS011;4837;50.890;4.724;2023-11-21T10:46:13;41.75;;;21.55;;
9597;SDS011;4837;50.890;4.724;2023-11-21T10:48:43;39.03;;;21.50;;
9597;SDS011;4837;50.890;4.724;2023-11-21T10:51:10;40.92;;;21.08;;
9597;SDS011;4837;50.890;4.724;2023-11-21T10:53:40;41.30;;;22.60;;
9597;SDS011;4837;50.890;4.724;2023-11-21T10:56:08;36.45;;;21.88;;
9597;SDS011;4837;50.890;4.724;2023-11-21T10:58:42;40.78;;;24.27;;
9597;SDS011;4837;50.890;4.724;2023-11-21T11:01:09;41.47;;;25.63;;
9597;SDS011;4837;50.890;4.724;2023-11-21T11:03:39;44.47;;;24.35;;
9597;SDS011;4837;50.890;4.724;2023-11-21T11:06:05;40.75;;;22.42;;
9597;SDS011;4837;50.890;4.724;2023-11-21T11:08:40;44.88;;;23.58;;
9597;SDS011;4837;50.890;4.724;2023-11-21T11:11:06;36.83;;;22.27;;
9597;SDS011;4837;50.890;4.724;2023-11-21T11:13:33;39.33;;;23.02;;
9597;SDS011;4837;50.890;4.724;2023-11-21T11:15:59;36.10;;;21.63;;
9597;SDS011;4837;50.890;4.724;2023-11-21T11:18:29;37.53;;;21.50;;
9597;SDS011;4837;50.890;4.724;2023-11-21T11:21:01;37.08;;;21.52;;
9597;SDS011;4837;50.890;4.724;2023-11-21T11:23:36;42.10;;;22.67;;
9597;SDS011;4837;50.890;4.724;2023-11-21T11:28:38;41.50;;;21.58;;
9597;SDS011;4837;50.890;4.724;2023-11-21T11:31:26;35.35;;;20.85;;
9597;SDS011;4837;50.890;4.724;2023-11-21T11:33:54;35.95;;;20.55;;
9597;SDS011;4837;50.890;4.724;2023-11-21T11:38:52;39.15;;;20.50;;
9597;SDS011;4837;50.890;4.724;2023-11-21T11:41:30;35.60;;;20.45;;
9597;SDS011;4837;50.890;4.724;2023-11-21T11:44:02;35.20;;;20.40;;
9597;SDS011;4837;50.890;4.724;2023-11-21T11:46:42;31.50;;;19.17;;
9597;SDS011;4837;50.890;4.724;2023-11-21T11:49:10;33.75;;;19.48;;
9597;SDS011;4837;50.890;4.724;2023-11-21T11:51:36;34.70;;;18.90;;
9597;SDS011;4837;50.890;4.724;2023-11-21T11:54:02;27.25;;;17.45;;
9597;SDS011;4837;50.890;4.724;2023-11-21T11:56:29;27.77;;;17.25;;
9597;SDS011;4837;50.890;4.724;2023-11-21T11:58:58;26.85;;;16.73;;
9597;SDS011;4837;50.890;4.724;2023-11-21T12:01:25;24.67;;;14.73;;
9597;SDS011;4837;50.890;4.724;2023-11-21T12:06:41;22.55;;;14.57;;
9597;SDS011;4837;50.890;4.724;2023-11-21T12:09:29;21.40;;;14.05;;
9597;SDS011;4837;50.890;4.724;2023-11-21T12:11:55;19.80;;;13.23;;
9597;SDS011;4837;50.890;4.724;2023-11-21T12:14:21;21.30;;;12.85;;
9597;SDS011;4837;50.890;4.724;2023-11-21T12:16:48;22.52;;;12.75;;
9597;SDS011;4837;50.890;4.724;2023-11-21T12:19:14;17.38;;;12.07;;
9597;SDS011;4837;50.890;4.724;2023-11-21T12:21:41;18.23;;;11.63;;
9597;SDS011;4837;50.890;4.724;2023-11-21T12:24:07;15.30;;;12.07;;
9597;SDS011;4837;50.890;4.724;2023-11-21T12:26:34;16.35;;;11.95;;
9597;SDS011;4837;50.890;4.724;2023-11-21T12:29:01;15.25;;;12.15;;
9597;SDS011;4837;50.890;4.724;2023-11-21T12:31:29;19.85;;;11.63;;
9597;SDS011;4837;50.890;4.724;2023-11-21T12:33:56;16.92;;;10.93;;
9597;SDS011;4837;50.890;4.724;2023-11-21T12:36:22;15.93;;;10.88;;
9597;SDS011;4837;50.890;4.724;2023-11-21T12:38:48;14.63;;;10.15;;
9597;SDS011;4837;50.890;4.724;2023-11-21T12:41:15;14.82;;;10.50;;
9597;SDS011;4837;50.890;4.724;2023-11-21T12:43:46;13.73;;;9.82;;
9597;SDS011;4837;50.890;4.724;2023-11-21T12:46:13;12.50;;;8.77;;
9597;SDS011;4837;50.890;4.724;2023-11-21T12:48:43;9.30;;;7.72;;
9597;SDS011;4837;50.890;4.724;2023-11-21T12:51:11;10.98;;;7.88;;
9597;SDS011;4837;50.890;4.724;2023-11-21T12:53:39;11.57;;;8.05;;
9597;SDS011;4837;50.890;4.724;2023-11-21T12:56:11;12.40;;;8.18;;
9597;SDS011;4837;50.890;4.724;2023-11-21T12:58:38;10.63;;;8.27;;
9597;SDS011;4837;50.890;4.724;2023-11-21T13:01:05;12.65;;;8.20;;
9597;SDS011;4837;50.890;4.724;2023-11-21T13:03:37;10.70;;;8.15;;
9597;SDS011;4837;50.890;4.724;2023-11-21T13:06:03;11.30;;;7.68;;
9597;SDS011;4837;50.890;4.724;2023-11-21T13:08:30;11.30;;;7.93;;
9597;SDS011;4837;50.890;4.724;2023-11-21T13:10:58;9.82;;;7.65;;
9597;SDS011;4837;50.890;4.724;2023-11-21T13:13:24;11.30;;;6.75;;
9597;SDS011;4837;50.890;4.724;2023-11-21T13:15:56;10.10;;;6.72;;
9597;SDS011;4837;50.890;4.724;2023-11-21T13:18:26;9.52;;;6.25;;
9597;SDS011;4837;50.890;4.724;2023-11-21T13:20:55;9.63;;;6.60;;
9597;SDS011;4837;50.890;4.724;2023-11-21T13:23:23;9.00;;;6.07;;
9597;SDS011;4837;50.890;4.724;2023-11-21T13:25:49;7.38;;;5.80;;
9597;SDS011;4837;50.890;4.724;2023-11-21T13:28:15;7.47;;;5.47;;
9597;SDS011;4837;50.890;4.724;2023-11-21T13:30:43;7.88;;;5.88;;
9597;SDS011;4837;50.890;4.724;2023-11-21T13:33:10;8.10;;;5.80;;
9597;SDS011;4837;50.890;4.724;2023-11-21T13:35:42;8.35;;;6.18;;
9597;SDS011;4837;50.890;4.724;2023-11-21T13:38:14;8.13;;;5.75;;
9597;SDS011;4837;50.890;4.724;2023-11-21T13:40:45;8.77;;;5.40;;
9597;SDS011;4837;50.890;4.724;2023-11-21T13:43:14;8.07;;;5.90;;
9597;SDS011;4837;50.890;4.724;2023-11-21T13:45:41;6.75;;;5.60;;
9597;SDS011;4837;50.890;4.724;2023-11-21T13:48:08;7.00;;;5.63;;
9597;SDS011;4837;50.890;4.724;2023-11-21T13:50:45;7.40;;;5.28;;
9597;SDS011;4837;50.890;4.724;2023-11-21T13:53:34;7.65;;;5.53;;
9597;SDS011;4837;50.890;4.724;2023-11-21T13:56:03;6.70;;;5.43;;
9597;SDS011;4837;50.890;4.724;2023-11-21T13:58:29;8.30;;;5.57;;
9597;SDS011;4837;50.890;4.724;2023-11-21T14:01:14;7.20;;;5.30;;
9597;SDS011;4837;50.890;4.724;2023-11-21T14:03:56;8.52;;;5.18;;
9597;SDS011;4837;50.890;4.724;2023-11-21T14:06:27;8.18;;;5.40;;
9597;SDS011;4837;50.890;4.724;2023-11-21T14:08:57;6.68;;;5.30;;
9597;SDS011;4837;50.890;4.724;2023-11-21T14:11:24;6.20;;;5.57;;
9597;SDS011;4837;50.890;4.724;2023-11-21T14:13:50;6.97;;;5.57;;
9597;SDS011;4837;50.890;4.724;2023-11-21T14:16:16;6.88;;;5.85;;
9597;SDS011;4837;50.890;4.724;2023-11-21T14:18:43;8.63;;;6.05;;
9597;SDS011;4837;50.890;4.724;2023-11-21T14:21:21;7.10;;;6.15;;
9597;SDS011;4837;50.890;4.724;2023-11-21T14:23:47;6.45;;;5.72;;
9597;SDS011;4837;50.890;4.724;2023-11-21T14:26:13;7.88;;;6.18;;
9597;SDS011;4837;50.890;4.724;2023-11-21T14:28:41;8.10;;;6.22;;
9597;SDS011;4837;50.890;4.724;2023-11-21T14:31:07;8.15;;;6.20;;
9597;SDS011;4837;50.890;4.724;2023-11-21T14:33:38;8.18;;;6.00;;
9597;SDS011;4837;50.890;4.724;2023-11-21T14:36:05;8.20;;;5.75;;
9597;SDS011;4837;50.890;4.724;2023-11-21T14:38:33;7.43;;;6.18;;
9597;SDS011;4837;50.890;4.724;2023-11-21T14:40:59;8.27;;;6.18;;
9597;SDS011;4837;50.890;4.724;2023-11-21T14:43:25;6.32;;;5.50;;
9597;SDS011;4837;50.890;4.724;2023-11-21T14:45:55;9.60;;;5.78;;
9597;SDS011;4837;50.890;4.724;2023-11-21T14:48:22;6.78;;;5.90;;
9597;SDS011;4837;50.890;4.724;2023-11-21T14:51:07;7.35;;;5.47;;
9597;SDS011;4837;50.890;4.724;2023-11-21T14:53:53;6.80;;;6.10;;
9597;SDS011;4837;50.890;4.724;2023-11-21T14:56:20;6.43;;;5.73;;
9597;SDS011;4837;50.890;4.724;2023-11-21T14:58:54;8.13;;;5.88;;
9597;SDS011;4837;50.890;4.724;2023-11-21T15:01:22;6.32;;;5.47;;
9597;SDS011;4837;50.890;4.724;2023-11-21T15:04:21;7.82;;;5.75;;